Time,TemperatureF,DewpointF,PressureIn,WindDirection,WindDirectionDegrees,WindSpeedMPH,WindSpeedGustMPH,Humidity,HourlyPrecipIn,Conditions,Clouds,dailyrainin,SoftwareType,DateUTC
2013-01-30 00:00:00,51.2,50.7,29.34,South,190,0.0,5.0,98,0.06,,---,0.00,VWS V14.00,2013-01-30 06:00:00,
2013-01-30 00:03:00,49.8,49.3,29.34,NNW,337,8.0,15.0,98,0.03,,---,0.02,VWS V14.00,2013-01-30 06:03:00,
2013-01-30 00:08:00,44.3,43.0,29.34,North,355,19.0,19.0,95,0.03,,---,0.02,VWS V14.00,2013-01-30 06:08:00,
2013-01-30 00:13:00,43.0,42.2,29.36,NNW,347,8.0,12.0,97,0.02,,---,0.02,VWS V14.00,2013-01-30 06:13:00,
2013-01-30 00:18:00,42.4,41.6,29.36,NNW,346,8.0,14.0,97,0.02,,---,0.02,VWS V14.00,2013-01-30 06:18:00,
2013-01-30 00:23:00,42.2,41.4,29.36,NNW,338,8.0,14.0,97,0.03,,---,0.03,VWS V14.00,2013-01-30 06:23:00,
2013-01-30 00:28:00,41.8,41.0,29.35,NNW,327,11.0,15.0,97,0.03,,---,0.03,VWS V14.00,2013-01-30 06:28:00,
2013-01-30 00:30:00,51.5,51.0,29.34,WSW,256,5.0,7.0,98,0.04,,---,0.01,VWS V14.00,2013-01-30 06:30:00,
2013-01-30 00:33:00,41.5,41.0,29.35,NNW,330,13.0,16.0,98,0.03,,---,0.03,VWS V14.00,2013-01-30 06:33:00,
2013-01-30 00:38:00,41.4,40.6,29.35,NNW,329,10.0,16.0,97,0.04,,---,0.04,VWS V14.00,2013-01-30 06:38:00,
2013-01-30 00:43:00,41.3,40.8,29.38,NW,314,11.0,12.0,98,0.03,,---,0.04,VWS V14.00,2013-01-30 06:43:00,
2013-01-30 00:48:00,41.1,40.6,29.38,NNW,333,12.0,14.0,98,0.03,,---,0.04,VWS V14.00,2013-01-30 06:48:00,
2013-01-30 00:53:00,41.0,40.5,29.38,NNW,340,9.0,14.0,98,0.04,,---,0.05,VWS V14.00,2013-01-30 06:53:00,
2013-01-30 00:58:00,40.8,40.3,29.37,NW,319,12.0,15.0,98,0.05,,---,0.06,VWS V14.00,2013-01-30 06:58:00,
2013-01-30 01:00:00,43.1,42.0,29.36,North,355,12.0,19.0,96,0.03,,---,0.02,VWS V14.00,2013-01-30 07:00:00,
2013-01-30 01:03:00,40.7,40.2,29.37,NW,326,7.0,15.0,98,0.06,,---,0.07,VWS V14.00,2013-01-30 07:03:00,
2013-01-30 01:08:00,40.7,40.2,29.37,North,349,11.0,15.0,98,0.06,,---,0.07,VWS V14.00,2013-01-30 07:08:00,
2013-01-30 01:13:00,40.6,40.1,29.35,North,359,5.0,8.0,98,0.06,,---,0.08,VWS V14.00,2013-01-30 07:13:00,
2013-01-30 01:18:00,40.4,39.9,29.35,NNW,340,6.0,11.0,98,0.07,,---,0.09,VWS V14.00,2013-01-30 07:18:00,
2013-01-30 01:23:00,40.4,39.9,29.35,NNW,345,10.0,13.0,98,0.07,,---,0.09,VWS V14.00,2013-01-30 07:23:00,
2013-01-30 01:28:00,40.3,39.8,29.35,NNW,345,8.0,14.0,98,0.08,,---,0.10,VWS V14.00,2013-01-30 07:28:00,
2013-01-30 01:30:00,41.3,40.8,29.38,NW,325,8.0,16.0,98,0.04,,---,0.04,VWS V14.00,2013-01-30 07:30:00,
2013-01-30 01:33:00,40.2,39.7,29.35,NNW,338,5.0,14.0,98,0.08,,---,0.10,VWS V14.00,2013-01-30 07:33:00,
2013-01-30 01:38:00,40.2,39.7,29.35,NNW,344,0.0,14.0,98,0.08,,---,0.10,VWS V14.00,2013-01-30 07:38:00,
2013-01-30 01:43:00,40.2,39.7,29.36,North,349,4.0,5.0,98,0.06,,---,0.10,VWS V14.00,2013-01-30 07:43:00,
2013-01-30 01:48:00,40.1,39.6,29.36,North,349,5.0,7.0,98,0.06,,---,0.10,VWS V14.00,2013-01-30 07:48:00,
2013-01-30 01:53:00,40.1,39.6,29.36,NW,316,6.0,7.0,98,0.06,,---,0.10,VWS V14.00,2013-01-30 07:53:00,
2013-01-30 01:58:00,40.0,39.5,29.37,NNW,342,6.0,10.0,98,0.06,,---,0.10,VWS V14.00,2013-01-30 07:58:00,
2013-01-30 02:00:00,40.6,40.1,29.35,NNW,345,6.0,15.0,98,0.07,,---,0.08,VWS V14.00,2013-01-30 08:00:00,
2013-01-30 02:03:00,39.9,39.4,29.37,NNW,343,5.0,10.0,98,0.06,,---,0.10,VWS V14.00,2013-01-30 08:03:00,
2013-01-30 02:08:00,39.8,39.3,29.37,North,351,4.0,10.0,98,0.06,,---,0.10,VWS V14.00,2013-01-30 08:08:00,
2013-01-30 02:13:00,39.7,39.2,29.35,North,354,8.0,8.0,98,0.02,,---,0.10,VWS V14.00,2013-01-30 08:13:00,
2013-01-30 02:18:00,39.6,39.1,29.35,NNW,342,6.0,8.0,98,0.02,,---,0.10,VWS V14.00,2013-01-30 08:18:00,
2013-01-30 02:23:00,39.6,39.1,29.35,NNW,347,8.0,9.0,98,0.02,,---,0.10,VWS V14.00,2013-01-30 08:23:00,
2013-01-30 02:28:00,39.6,39.1,29.37,NNW,343,6.0,9.0,98,0.02,,---,0.10,VWS V14.00,2013-01-30 08:28:00,
2013-01-30 02:30:00,40.2,39.7,29.36,North,349,0.0,14.0,98,0.08,,---,0.10,VWS V14.00,2013-01-30 08:30:00,
2013-01-30 02:33:00,39.6,39.1,29.37,NNW,340,5.0,9.0,98,0.02,,---,0.10,VWS V14.00,2013-01-30 08:33:00,
2013-01-30 02:38:00,39.6,39.1,29.37,NNW,342,7.0,9.0,98,0.02,,---,0.10,VWS V14.00,2013-01-30 08:38:00,
2013-01-30 02:43:00,39.5,39.0,29.37,NNW,343,8.0,8.0,98,0.00,,---,0.10,VWS V14.00,2013-01-30 08:43:00,
2013-01-30 02:48:00,39.5,39.0,29.37,NNW,328,6.0,9.0,98,0.00,,---,0.10,VWS V14.00,2013-01-30 08:48:00,
2013-01-30 02:53:00,39.5,39.0,29.37,NNW,330,6.0,11.0,98,0.00,,---,0.10,VWS V14.00,2013-01-30 08:53:00,
2013-01-30 02:58:00,39.4,38.9,29.39,NW,321,5.0,11.0,98,0.00,,---,0.10,VWS V14.00,2013-01-30 08:58:00,
2013-01-30 03:00:00,39.7,39.2,29.35,North,354,5.0,10.0,98,0.06,,---,0.10,VWS V14.00,2013-01-30 09:00:00,
2013-01-30 03:03:00,39.5,39.0,29.39,NW,311,7.0,11.0,98,0.00,,---,0.10,VWS V14.00,2013-01-30 09:03:00,
2013-01-30 03:08:00,39.5,39.0,29.39,NW,307,8.0,11.0,98,0.01,,---,0.11,VWS V14.00,2013-01-30 09:08:00,
2013-01-30 03:13:00,39.3,38.8,29.41,NNW,338,8.0,9.0,98,0.02,,---,0.12,VWS V14.00,2013-01-30 09:13:00,
2013-01-30 03:18:00,39.2,38.7,29.41,NNW,330,7.0,9.0,98,0.03,,---,0.13,VWS V14.00,2013-01-30 09:18:00,
2013-01-30 03:23:00,39.1,38.6,29.41,NNW,338,6.0,9.0,98,0.04,,---,0.14,VWS V14.00,2013-01-30 09:23:00,
2013-01-30 03:28:00,38.9,38.4,29.37,NNW,342,7.0,9.0,98,0.05,,---,0.15,VWS V14.00,2013-01-30 09:28:00,
2013-01-30 03:30:00,39.5,39.0,29.37,NNW,345,6.0,10.0,98,0.02,,---,0.10,VWS V14.00,2013-01-30 09:30:00,
2013-01-30 03:33:00,38.7,38.2,29.37,North,352,4.0,9.0,98,0.05,,---,0.15,VWS V14.00,2013-01-30 09:33:00,
2013-01-30 03:38:00,38.7,38.2,29.37,North,352,0.0,9.0,98,0.05,,---,0.15,VWS V14.00,2013-01-30 09:38:00,
2013-01-30 03:43:00,38.6,38.1,29.33,ENE,61,3.0,4.0,98,0.05,,---,0.15,VWS V14.00,2013-01-30 09:43:00,
2013-01-30 03:48:00,38.5,38.0,29.33,NE,45,0.0,6.0,98,0.05,,---,0.15,VWS V14.00,2013-01-30 09:48:00,
2013-01-30 03:53:00,38.4,37.9,29.33,East,79,4.0,6.0,98,0.05,,---,0.15,VWS V14.00,2013-01-30 09:53:00,
2013-01-30 03:58:00,38.3,37.8,29.26,NE,51,0.0,9.0,98,0.05,,---,0.15,VWS V14.00,2013-01-30 09:58:00,
2013-01-30 04:00:00,39.4,38.9,29.41,WNW,300,6.0,11.0,98,0.02,,---,0.12,VWS V14.00,2013-01-30 10:00:00,
2013-01-30 04:03:00,38.2,37.7,29.26,ENE,68,0.0,9.0,98,0.05,,---,0.15,VWS V14.00,2013-01-30 10:03:00,
2013-01-30 04:08:00,38.1,37.6,29.26,ENE,66,4.0,9.0,98,0.05,,---,0.15,VWS V14.00,2013-01-30 10:08:00,
2013-01-30 04:13:00,38.1,37.6,29.27,ENE,67,0.0,0.0,98,0.03,,---,0.15,VWS V14.00,2013-01-30 10:13:00,
2013-01-30 04:18:00,38.0,37.5,29.27,ENE,67,0.0,4.0,98,0.03,,---,0.15,VWS V14.00,2013-01-30 10:18:00,
2013-01-30 04:23:00,38.0,37.5,29.27,ENE,67,0.0,4.0,98,0.03,,---,0.15,VWS V14.00,2013-01-30 10:23:00,
2013-01-30 04:28:00,38.0,37.5,29.29,ENE,67,0.0,4.0,98,0.03,,---,0.15,VWS V14.00,2013-01-30 10:28:00,
2013-01-30 04:30:00,38.7,38.2,29.33,ENE,72,4.0,9.0,98,0.05,,---,0.15,VWS V14.00,2013-01-30 10:30:00,
2013-01-30 04:33:00,38.0,37.5,29.29,ENE,67,0.0,4.0,98,0.03,,---,0.15,VWS V14.00,2013-01-30 10:33:00,
2013-01-30 04:38:00,38.1,37.6,29.29,ENE,67,1.0,4.0,98,0.03,,---,0.15,VWS V14.00,2013-01-30 10:38:00,
2013-01-30 04:43:00,38.1,37.6,29.29,ENE,67,0.0,0.0,98,0.00,,---,0.15,VWS V14.00,2013-01-30 10:43:00,
2013-01-30 04:48:00,38.1,37.6,29.29,ENE,67,0.0,0.0,98,0.00,,---,0.15,VWS V14.00,2013-01-30 10:48:00,
2013-01-30 04:53:00,38.1,37.6,29.29,ENE,67,0.0,0.0,98,0.00,,---,0.15,VWS V14.00,2013-01-30 10:53:00,
2013-01-30 04:58:00,38.1,37.6,29.27,ENE,67,0.0,5.0,98,0.00,,---,0.15,VWS V14.00,2013-01-30 10:58:00,
2013-01-30 05:00:00,38.1,37.6,29.27,ENE,67,0.0,9.0,98,0.05,,---,0.15,VWS V14.00,2013-01-30 11:00:00,
2013-01-30 05:03:00,38.0,37.5,29.27,ENE,67,0.0,5.0,98,0.00,,---,0.15,VWS V14.00,2013-01-30 11:03:00,
2013-01-30 05:08:00,38.0,37.5,29.27,ENE,67,0.0,5.0,98,0.00,,---,0.15,VWS V14.00,2013-01-30 11:08:00,
2013-01-30 05:13:00,38.0,37.5,29.28,ENE,67,0.0,0.0,98,0.00,,---,0.15,VWS V14.00,2013-01-30 11:13:00,
2013-01-30 05:18:00,37.9,37.4,29.28,ENE,67,0.0,0.0,98,0.00,,---,0.15,VWS V14.00,2013-01-30 11:18:00,
2013-01-30 05:23:00,38.0,37.5,29.28,ENE,67,0.0,0.0,98,0.00,,---,0.15,VWS V14.00,2013-01-30 11:23:00,
2013-01-30 05:28:00,37.9,37.4,29.29,ENE,67,0.0,0.0,98,0.00,,---,0.15,VWS V14.00,2013-01-30 11:28:00,
2013-01-30 05:30:00,38.1,37.6,29.29,ENE,67,0.0,4.0,98,0.03,,---,0.15,VWS V14.00,2013-01-30 11:30:00,
2013-01-30 05:33:00,38.0,37.5,29.29,ENE,67,0.0,0.0,98,0.00,,---,0.15,VWS V14.00,2013-01-30 11:33:00,
2013-01-30 05:38:00,38.0,37.5,29.29,ENE,67,0.0,0.0,98,0.00,,---,0.15,VWS V14.00,2013-01-30 11:38:00,
2013-01-30 05:43:00,38.1,37.6,29.28,ENE,67,0.0,0.0,98,0.00,,---,0.15,VWS V14.00,2013-01-30 11:43:00,
2013-01-30 05:48:00,38.1,37.6,29.28,ENE,67,3.0,3.0,98,0.00,,---,0.15,VWS V14.00,2013-01-30 11:48:00,
2013-01-30 05:53:00,38.0,37.5,29.28,ENE,67,0.0,4.0,98,0.00,,---,0.15,VWS V14.00,2013-01-30 11:53:00,
2013-01-30 05:58:00,38.0,37.5,29.29,ENE,67,0.0,4.0,98,0.00,,---,0.15,VWS V14.00,2013-01-30 11:58:00,
2013-01-30 06:00:00,38.0,37.5,29.28,ENE,67,0.0,5.0,98,0.00,,---,0.15,VWS V14.00,2013-01-30 12:00:00,
2013-01-30 06:03:00,38.0,37.5,29.29,ENE,67,2.0,4.0,98,0.00,,---,0.15,VWS V14.00,2013-01-30 12:03:00,
2013-01-30 06:08:00,38.0,37.5,29.29,East,91,1.0,7.0,98,0.00,,---,0.15,VWS V14.00,2013-01-30 12:08:00,
2013-01-30 06:13:00,38.0,37.5,29.26,East,101,4.0,6.0,98,0.00,,---,0.15,VWS V14.00,2013-01-30 12:13:00,
2013-01-30 06:18:00,37.9,37.4,29.26,ESE,103,5.0,8.0,98,0.00,,---,0.15,VWS V14.00,2013-01-30 12:18:00,
2013-01-30 06:23:00,37.8,37.3,29.26,East,94,0.0,8.0,98,0.00,,---,0.15,VWS V14.00,2013-01-30 12:23:00,
2013-01-30 06:28:00,37.8,37.3,29.26,East,95,0.0,8.0,98,0.00,,---,0.15,VWS V14.00,2013-01-30 12:28:00,
2013-01-30 06:30:00,38.1,37.6,29.28,ENE,67,0.0,5.0,98,0.00,,---,0.15,VWS V14.00,2013-01-30 12:30:00,
2013-01-30 06:33:00,37.8,37.3,29.26,East,95,0.0,8.0,98,0.00,,---,0.15,VWS V14.00,2013-01-30 12:33:00,
2013-01-30 06:38:00,37.8,37.3,29.26,East,95,0.0,8.0,98,0.00,,---,0.15,VWS V14.00,2013-01-30 12:38:00,
2013-01-30 06:43:00,37.8,37.3,29.26,East,95,0.0,0.0,98,0.00,,---,0.15,VWS V14.00,2013-01-30 12:43:00,
2013-01-30 06:48:00,37.9,37.4,29.26,East,95,0.0,4.0,98,0.00,,---,0.15,VWS V14.00,2013-01-30 12:48:00,
2013-01-30 06:53:00,37.9,37.4,29.26,East,95,0.0,4.0,98,0.00,,---,0.15,VWS V14.00,2013-01-30 12:53:00,
2013-01-30 06:58:00,37.9,37.4,29.25,East,95,0.0,4.0,98,0.00,,---,0.15,VWS V14.00,2013-01-30 12:58:00,
2013-01-30 07:00:00,37.9,37.4,29.26,East,91,4.0,8.0,98,0.00,,---,0.15,VWS V14.00,2013-01-30 13:00:00,
2013-01-30 07:03:00,37.9,37.4,29.25,East,95,0.0,4.0,98,0.00,,---,0.15,VWS V14.00,2013-01-30 13:03:00,
2013-01-30 07:08:00,37.9,37.4,29.25,East,96,0.0,5.0,98,0.00,,---,0.15,VWS V14.00,2013-01-30 13:08:00,
2013-01-30 07:13:00,37.9,37.4,29.24,East,96,0.0,0.0,98,0.00,,---,0.15,VWS V14.00,2013-01-30 13:13:00,
2013-01-30 07:18:00,37.9,37.4,29.24,East,96,0.0,0.0,98,0.00,,---,0.15,VWS V14.00,2013-01-30 13:18:00,
2013-01-30 07:23:00,38.0,37.5,29.24,East,96,0.0,0.0,98,0.02,,---,0.17,VWS V14.00,2013-01-30 13:23:00,
2013-01-30 07:28:00,38.0,37.5,29.23,East,96,0.0,2.0,98,0.03,,---,0.18,VWS V14.00,2013-01-30 13:28:00,
2013-01-30 07:30:00,37.8,37.3,29.26,East,95,0.0,8.0,98,0.00,,---,0.15,VWS V14.00,2013-01-30 13:30:00,
2013-01-30 07:33:00,38.0,37.5,29.23,East,96,2.0,5.0,98,0.04,,---,0.19,VWS V14.00,2013-01-30 13:33:00,
2013-01-30 07:38:00,38.1,37.6,29.23,East,96,2.0,5.0,98,0.04,,---,0.19,VWS V14.00,2013-01-30 13:38:00,
2013-01-30 07:43:00,38.1,37.6,29.24,East,96,0.0,0.0,98,0.05,,---,0.20,VWS V14.00,2013-01-30 13:43:00,
2013-01-30 07:48:00,38.2,37.7,29.24,East,96,0.0,0.0,98,0.06,,---,0.21,VWS V14.00,2013-01-30 13:48:00,
2013-01-30 07:53:00,38.3,37.8,29.24,East,96,0.0,2.0,98,0.06,,---,0.21,VWS V14.00,2013-01-30 13:53:00,
2013-01-30 07:58:00,38.4,37.9,29.22,East,96,0.0,5.0,98,0.06,,---,0.21,VWS V14.00,2013-01-30 13:58:00,
2013-01-30 08:00:00,37.9,37.4,29.24,East,96,0.0,5.0,98,0.00,,---,0.15,VWS V14.00,2013-01-30 14:00:00,
2013-01-30 08:03:00,38.5,38.0,29.22,East,96,0.0,5.0,98,0.06,,---,0.21,VWS V14.00,2013-01-30 14:03:00,
2013-01-30 08:08:00,38.6,38.1,29.22,East,96,0.0,5.0,98,0.06,,---,0.21,VWS V14.00,2013-01-30 14:08:00,
2013-01-30 08:13:00,38.7,38.2,29.21,East,96,0.0,0.0,98,0.06,,---,0.21,VWS V14.00,2013-01-30 14:13:00,
2013-01-30 08:18:00,38.8,38.3,29.21,East,101,0.0,6.0,98,0.06,,---,0.21,VWS V14.00,2013-01-30 14:18:00,
2013-01-30 08:23:00,39.6,39.1,29.21,WSW,251,8.0,15.0,98,0.06,,---,0.21,VWS V14.00,2013-01-30 14:23:00,
2013-01-30 08:28:00,41.6,41.3,29.24,West,260,11.0,21.0,99,0.07,,---,0.22,VWS V14.00,2013-01-30 14:28:00,
2013-01-30 08:30:00,38.2,37.7,29.24,East,96,0.0,5.0,98,0.05,,---,0.20,VWS V14.00,2013-01-30 14:30:00,
2013-01-30 08:33:00,41.1,40.8,29.24,West,260,20.0,25.0,99,0.07,,---,0.22,VWS V14.00,2013-01-30 14:33:00,
2013-01-30 08:38:00,40.0,39.5,29.24,West,259,5.0,27.0,98,0.07,,---,0.22,VWS V14.00,2013-01-30 14:38:00,
2013-01-30 08:43:00,38.8,38.3,29.25,West,274,14.0,15.0,98,0.02,,---,0.22,VWS V14.00,2013-01-30 14:43:00,
2013-01-30 08:48:00,38.0,37.5,29.25,West,281,19.0,25.0,98,0.02,,---,0.22,VWS V14.00,2013-01-30 14:48:00,
2013-01-30 08:53:00,37.5,37.0,29.25,West,266,11.0,25.0,98,0.02,,---,0.22,VWS V14.00,2013-01-30 14:53:00,
2013-01-30 08:58:00,37.4,36.9,29.25,WNW,286,13.0,25.0,98,0.02,,---,0.22,VWS V14.00,2013-01-30 14:58:00,
2013-01-30 09:00:00,38.6,38.1,29.21,East,96,0.0,5.0,98,0.06,,---,0.21,VWS V14.00,2013-01-30 15:00:00,
2013-01-30 09:03:00,37.1,36.6,29.25,NW,307,10.0,25.0,98,0.02,,---,0.22,VWS V14.00,2013-01-30 15:03:00,
2013-01-30 09:08:00,36.9,36.4,29.25,WNW,296,10.0,25.0,98,0.02,,---,0.22,VWS V14.00,2013-01-30 15:08:00,
2013-01-30 09:13:00,36.7,36.2,29.25,WNW,289,12.0,13.0,98,0.01,,---,0.22,VWS V14.00,2013-01-30 15:13:00,
2013-01-30 09:18:00,36.4,35.9,29.25,NNW,327,13.0,19.0,98,0.01,,---,0.22,VWS V14.00,2013-01-30 15:18:00,
2013-01-30 09:23:00,36.3,35.8,29.25,WNW,301,10.0,19.0,98,0.01,,---,0.22,VWS V14.00,2013-01-30 15:23:00,
2013-01-30 09:28:00,36.2,35.7,29.25,NNW,327,8.0,19.0,98,0.01,,---,0.22,VWS V14.00,2013-01-30 15:28:00,
2013-01-30 09:30:00,38.8,38.3,29.25,WSW,257,11.0,27.0,98,0.07,,---,0.22,VWS V14.00,2013-01-30 15:30:00,
2013-01-30 09:33:00,36.3,35.8,29.25,NW,319,9.0,19.0,98,0.01,,---,0.22,VWS V14.00,2013-01-30 15:33:00,
2013-01-30 09:38:00,36.0,35.5,29.25,NW,326,14.0,19.0,98,0.01,,---,0.22,VWS V14.00,2013-01-30 15:38:00,
2013-01-30 09:43:00,35.7,35.2,29.25,NW,319,13.0,13.0,98,0.00,,---,0.22,VWS V14.00,2013-01-30 15:43:00,
2013-01-30 09:48:00,35.9,35.4,29.25,WNW,290,8.0,14.0,98,0.00,,---,0.22,VWS V14.00,2013-01-30 15:48:00,
2013-01-30 09:53:00,36.0,35.5,29.25,NW,310,10.0,15.0,98,0.00,,---,0.22,VWS V14.00,2013-01-30 15:53:00,
2013-01-30 09:58:00,36.0,35.5,29.25,NW,325,15.0,18.0,98,0.00,,---,0.22,VWS V14.00,2013-01-30 15:58:00,
2013-01-30 10:00:00,36.7,36.2,29.25,NW,309,13.0,25.0,98,0.02,,---,0.22,VWS V14.00,2013-01-30 16:00:00,
2013-01-30 10:03:00,36.1,35.6,29.25,NW,304,11.0,18.0,98,0.00,,---,0.22,VWS V14.00,2013-01-30 16:03:00,
2013-01-30 10:08:00,36.2,35.7,29.25,NW,313,7.0,18.0,98,0.00,,---,0.22,VWS V14.00,2013-01-30 16:08:00,
2013-01-30 10:13:00,36.1,35.6,29.25,NW,317,8.0,11.0,98,0.00,,---,0.22,VWS V14.00,2013-01-30 16:13:00,
2013-01-30 10:18:00,36.1,35.6,29.25,NW,305,12.0,15.0,98,0.00,,---,0.22,VWS V14.00,2013-01-30 16:18:00,
2013-01-30 10:23:00,35.9,35.4,29.25,WNW,295,11.0,19.0,98,0.00,,---,0.22,VWS V14.00,2013-01-30 16:23:00,
2013-01-30 10:28:00,35.8,35.0,29.27,WNW,294,10.0,19.0,97,0.00,,---,0.22,VWS V14.00,2013-01-30 16:28:00,
2013-01-30 10:30:00,35.7,35.2,29.25,NNW,327,13.0,19.0,98,0.01,,---,0.22,VWS V14.00,2013-01-30 16:30:00,
2013-01-30 10:33:00,35.9,35.1,29.27,WNW,295,11.0,19.0,97,0.00,,---,0.22,VWS V14.00,2013-01-30 16:33:00,
2013-01-30 10:38:00,35.7,34.9,29.27,WNW,298,11.0,19.0,97,0.00,,---,0.22,VWS V14.00,2013-01-30 16:38:00,
2013-01-30 10:43:00,35.7,34.9,29.28,WNW,294,9.0,13.0,97,0.00,,---,0.22,VWS V14.00,2013-01-30 16:43:00,
2013-01-30 10:48:00,35.7,34.9,29.28,WNW,300,12.0,19.0,97,0.00,,---,0.22,VWS V14.00,2013-01-30 16:48:00,
2013-01-30 10:53:00,35.5,34.7,29.28,West,281,12.0,19.0,97,0.00,,---,0.22,VWS V14.00,2013-01-30 16:53:00,
2013-01-30 10:58:00,35.5,34.7,29.27,WNW,302,12.0,19.0,97,0.00,,---,0.22,VWS V14.00,2013-01-30 16:58:00,
2013-01-30 11:00:00,36.1,35.6,29.25,NW,305,11.0,18.0,98,0.00,,---,0.22,VWS V14.00,2013-01-30 17:00:00,
2013-01-30 11:03:00,35.4,34.6,29.27,West,279,8.0,19.0,97,0.00,,---,0.22,VWS V14.00,2013-01-30 17:03:00,
2013-01-30 11:08:00,35.3,34.5,29.27,West,273,14.0,19.0,97,0.00,,---,0.22,VWS V14.00,2013-01-30 17:08:00,
2013-01-30 11:13:00,35.2,34.4,29.28,WNW,298,11.0,11.0,97,0.00,,---,0.22,VWS V14.00,2013-01-30 17:13:00,
2013-01-30 11:18:00,35.2,34.4,29.28,WNW,288,14.0,15.0,97,0.00,,---,0.22,VWS V14.00,2013-01-30 17:18:00,
2013-01-30 11:23:00,35.1,34.3,29.28,WNW,289,6.0,16.0,97,0.00,,---,0.22,VWS V14.00,2013-01-30 17:23:00,
2013-01-30 11:28:00,34.9,33.9,29.29,NW,309,13.0,19.0,96,0.00,,---,0.22,VWS V14.00,2013-01-30 17:28:00,
2013-01-30 11:30:00,35.7,34.9,29.28,WSW,258,13.0,19.0,97,0.00,,---,0.22,VWS V14.00,2013-01-30 17:30:00,
2013-01-30 11:33:00,34.8,33.8,29.29,NW,317,13.0,20.0,96,0.00,,---,0.22,VWS V14.00,2013-01-30 17:33:00,
2013-01-30 11:38:00,34.7,33.7,29.29,NW,309,9.0,20.0,96,0.00,,---,0.22,VWS V14.00,2013-01-30 17:38:00,
2013-01-30 11:43:00,34.6,33.6,29.29,NW,319,8.0,11.0,96,0.00,,---,0.22,VWS V14.00,2013-01-30 17:43:00,
2013-01-30 11:48:00,34.6,33.6,29.29,WNW,292,14.0,19.0,96,0.00,,---,0.22,VWS V14.00,2013-01-30 17:48:00,
2013-01-30 11:53:00,34.5,33.5,29.29,NW,304,14.0,19.0,96,0.00,,---,0.22,VWS V14.00,2013-01-30 17:53:00,
2013-01-30 11:58:00,34.4,33.4,29.30,WNW,290,7.0,19.0,96,0.00,,---,0.22,VWS V14.00,2013-01-30 17:58:00,
2013-01-30 12:00:00,35.2,34.4,29.28,WNW,289,9.0,20.0,97,0.00,,---,0.22,VWS V14.00,2013-01-30 18:00:00,
2013-01-30 12:03:00,34.3,33.3,29.30,NW,317,9.0,19.0,96,0.00,,---,0.22,VWS V14.00,2013-01-30 18:03:00,
2013-01-30 12:08:00,34.2,33.2,29.30,WNW,293,10.0,21.0,96,0.00,,---,0.22,VWS V14.00,2013-01-30 18:08:00,
2013-01-30 12:13:00,34.2,33.2,29.28,NW,326,12.0,15.0,96,0.00,,---,0.22,VWS V14.00,2013-01-30 18:13:00,
2013-01-30 12:18:00,34.2,33.2,29.28,WNW,303,11.0,16.0,96,0.00,,---,0.22,VWS V14.00,2013-01-30 18:18:00,
2013-01-30 12:23:00,34.0,33.0,29.28,WNW,292,18.0,25.0,96,0.00,,---,0.22,VWS V14.00,2013-01-30 18:23:00,
2013-01-30 12:28:00,33.2,32.2,29.29,NW,306,12.0,25.0,96,0.00,,---,0.22,VWS V14.00,2013-01-30 18:28:00,
2013-01-30 12:30:00,34.7,33.9,29.29,NW,326,11.0,20.0,97,0.00,,---,0.22,VWS V14.00,2013-01-30 18:30:00,
2013-01-30 12:33:00,32.7,31.4,29.29,NW,309,15.0,25.0,95,0.00,,---,0.22,VWS V14.00,2013-01-30 18:33:00,
2013-01-30 12:38:00,32.3,31.0,29.29,WNW,302,13.0,25.0,95,0.00,,---,0.22,VWS V14.00,2013-01-30 18:38:00,
2013-01-30 12:43:00,32.1,31.1,29.30,NNW,330,22.0,23.0,96,0.00,,---,0.22,VWS V14.00,2013-01-30 18:43:00,
2013-01-30 12:48:00,32.0,31.0,29.30,WNW,298,8.0,23.0,96,0.00,,---,0.22,VWS V14.00,2013-01-30 18:48:00,
2013-01-30 12:53:00,31.8,30.5,29.30,NW,319,12.0,23.0,95,0.00,,---,0.22,VWS V14.00,2013-01-30 18:53:00,
2013-01-30 12:58:00,31.7,30.4,29.30,NW,319,11.0,23.0,95,0.00,,---,0.22,VWS V14.00,2013-01-30 18:58:00,
2013-01-30 13:00:00,34.2,33.2,29.28,NW,315,14.0,21.0,96,0.00,,---,0.22,VWS V14.00,2013-01-30 19:00:00,
2013-01-30 13:03:00,31.6,30.3,29.30,NW,319,21.0,23.0,95,0.00,,---,0.22,VWS V14.00,2013-01-30 19:03:00,
2013-01-30 13:08:00,31.5,30.2,29.30,NW,319,10.0,23.0,95,0.00,,---,0.22,VWS V14.00,2013-01-30 19:08:00,
2013-01-30 13:13:00,31.4,30.1,29.31,NW,319,12.0,18.0,95,0.00,,---,0.22,VWS V14.00,2013-01-30 19:13:00,
2013-01-30 13:18:00,31.4,30.1,29.31,NW,319,14.0,25.0,95,0.00,,---,0.22,VWS V14.00,2013-01-30 19:18:00,
2013-01-30 13:23:00,31.2,29.7,29.31,NW,319,10.0,25.0,94,0.00,,---,0.22,VWS V14.00,2013-01-30 19:23:00,
2013-01-30 13:28:00,31.2,29.9,29.32,NW,319,14.0,25.0,95,0.00,,---,0.22,VWS V14.00,2013-01-30 19:28:00,
2013-01-30 13:30:00,32.2,31.2,29.30,NW,312,15.0,25.0,96,0.00,,---,0.22,VWS V14.00,2013-01-30 19:30:00,
2013-01-30 13:33:00,31.0,29.5,29.32,NW,319,20.0,25.0,94,0.00,,---,0.22,VWS V14.00,2013-01-30 19:33:00,
2013-01-30 13:38:00,30.9,29.4,29.32,NW,319,18.0,25.0,94,0.00,,---,0.22,VWS V14.00,2013-01-30 19:38:00,
2013-01-30 13:43:00,30.8,29.3,29.33,NW,319,11.0,19.0,94,0.00,,---,0.22,VWS V14.00,2013-01-30 19:43:00,
2013-01-30 13:48:00,30.6,29.1,29.33,NW,319,19.0,22.0,94,0.00,,---,0.22,VWS V14.00,2013-01-30 19:48:00,
2013-01-30 13:53:00,30.5,29.0,29.33,NW,319,20.0,30.0,94,0.00,,---,0.22,VWS V14.00,2013-01-30 19:53:00,
2013-01-30 13:58:00,30.5,29.0,29.34,NW,319,10.0,30.0,94,0.00,,---,0.22,VWS V14.00,2013-01-30 19:58:00,
2013-01-30 14:00:00,31.4,30.1,29.31,NW,319,11.0,23.0,95,0.00,,---,0.22,VWS V14.00,2013-01-30 20:00:00,
2013-01-30 14:03:00,30.6,29.1,29.34,NW,319,19.0,30.0,94,0.00,,---,0.22,VWS V14.00,2013-01-30 20:03:00,
2013-01-30 14:08:00,30.5,29.0,29.34,NW,319,13.0,30.0,94,0.00,,---,0.22,VWS V14.00,2013-01-30 20:08:00,
2013-01-30 14:13:00,30.4,28.9,29.34,NW,319,13.0,21.0,94,0.00,,---,0.22,VWS V14.00,2013-01-30 20:13:00,
2013-01-30 14:18:00,30.3,28.8,29.34,NW,319,20.0,22.0,94,0.00,,---,0.22,VWS V14.00,2013-01-30 20:18:00,
2013-01-30 14:23:00,29.7,28.2,29.34,NW,319,19.0,28.0,94,0.00,,---,0.22,VWS V14.00,2013-01-30 20:23:00,
2013-01-30 14:28:00,29.4,27.9,29.35,NW,319,20.0,28.0,94,0.00,,---,0.22,VWS V14.00,2013-01-30 20:28:00,
2013-01-30 14:30:00,30.8,29.3,29.33,NW,319,16.0,25.0,94,0.00,,---,0.22,VWS V14.00,2013-01-30 20:30:00,
2013-01-30 14:33:00,28.8,27.0,29.35,NW,319,21.0,32.0,93,0.00,,---,0.22,VWS V14.00,2013-01-30 20:33:00,
2013-01-30 14:38:00,28.3,26.3,29.35,NW,319,22.0,32.0,92,0.00,,---,0.22,VWS V14.00,2013-01-30 20:38:00,
2013-01-30 14:43:00,28.0,26.0,29.37,NW,319,25.0,25.0,92,0.00,,---,0.22,VWS V14.00,2013-01-30 20:43:00,
2013-01-30 14:48:00,27.6,25.8,29.37,NW,319,24.0,29.0,93,0.00,,---,0.22,VWS V14.00,2013-01-30 20:48:00,
2013-01-30 14:53:00,27.5,25.8,29.37,NW,319,23.0,31.0,93,0.00,,---,0.22,VWS V14.00,2013-01-30 20:53:00,
2013-01-30 14:58:00,27.3,25.5,29.38,NW,319,19.0,32.0,93,0.00,,---,0.22,VWS V14.00,2013-01-30 20:58:00,
2013-01-30 15:00:00,30.4,28.9,29.34,NW,319,21.0,30.0,94,0.00,,---,0.22,VWS V14.00,2013-01-30 21:00:00,
2013-01-30 15:03:00,27.4,25.6,29.38,NW,319,13.0,32.0,93,0.00,,---,0.22,VWS V14.00,2013-01-30 21:03:00,
2013-01-30 15:08:00,27.4,25.9,29.38,NW,319,22.0,32.0,94,0.00,,---,0.22,VWS V14.00,2013-01-30 21:08:00,
2013-01-30 15:13:00,27.1,25.4,29.40,NW,319,16.0,20.0,93,0.00,,---,0.22,VWS V14.00,2013-01-30 21:13:00,
2013-01-30 15:18:00,27.2,25.5,29.40,NW,319,16.0,31.0,93,0.00,,---,0.22,VWS V14.00,2013-01-30 21:18:00,
2013-01-30 15:23:00,27.0,25.2,29.40,NW,319,26.0,31.0,93,0.00,,---,0.22,VWS V14.00,2013-01-30 21:23:00,
2013-01-30 15:28:00,26.9,25.1,29.41,NW,319,27.0,31.0,93,0.00,,---,0.22,VWS V14.00,2013-01-30 21:28:00,
2013-01-30 15:30:00,28.1,26.3,29.37,NW,319,20.0,32.0,93,0.00,,---,0.22,VWS V14.00,2013-01-30 21:30:00,
2013-01-30 15:33:00,26.9,25.1,29.41,NW,319,23.0,31.0,93,0.00,,---,0.22,VWS V14.00,2013-01-30 21:33:00,
2013-01-30 15:38:00,26.8,25.0,29.41,NW,319,21.0,31.0,93,0.00,,---,0.22,VWS V14.00,2013-01-30 21:38:00,
2013-01-30 15:43:00,26.6,24.9,29.42,NW,319,21.0,26.0,93,0.00,,---,0.22,VWS V14.00,2013-01-30 21:43:00,
2013-01-30 15:48:00,26.6,24.9,29.42,NW,319,19.0,30.0,93,0.00,,---,0.22,VWS V14.00,2013-01-30 21:48:00,
2013-01-30 15:53:00,26.5,24.8,29.42,NW,319,12.0,30.0,93,0.00,,---,0.22,VWS V14.00,2013-01-30 21:53:00,
2013-01-30 15:58:00,26.6,24.6,29.43,NW,319,18.0,33.0,92,0.00,,---,0.22,VWS V14.00,2013-01-30 21:58:00,
2013-01-30 16:00:00,27.1,25.4,29.40,NW,319,15.0,32.0,93,0.00,,---,0.22,VWS V14.00,2013-01-30 22:00:00,
2013-01-30 16:03:00,26.5,24.8,29.43,NW,319,25.0,33.0,93,0.00,,---,0.22,VWS V14.00,2013-01-30 22:03:00,
2013-01-30 16:08:00,26.5,24.5,29.43,NW,319,21.0,33.0,92,0.00,,---,0.22,VWS V14.00,2013-01-30 22:08:00,
2013-01-30 16:13:00,26.6,26.4,29.44,NW,319,20.0,25.0,99,0.00,,---,0.22,VWS V14.00,2013-01-30 22:13:00,
2013-01-30 16:18:00,26.6,24.6,29.44,NW,319,18.0,33.0,92,0.00,,---,0.22,VWS V14.00,2013-01-30 22:18:00,
2013-01-30 16:23:00,26.6,26.4,29.44,NW,319,14.0,33.0,99,0.00,,---,0.22,VWS V14.00,2013-01-30 22:23:00,
2013-01-30 16:28:00,26.5,24.5,29.45,NW,319,18.0,33.0,92,0.00,,---,0.22,VWS V14.00,2013-01-30 22:28:00,
2013-01-30 16:30:00,26.6,24.9,29.42,NW,319,20.0,33.0,93,0.00,,---,0.22,VWS V14.00,2013-01-30 22:30:00,
2013-01-30 16:33:00,26.5,24.5,29.45,NW,319,21.0,33.0,92,0.00,,---,0.22,VWS V14.00,2013-01-30 22:33:00,
2013-01-30 16:38:00,26.3,24.0,29.45,NW,319,20.0,33.0,91,0.00,,---,0.22,VWS V14.00,2013-01-30 22:38:00,
2013-01-30 16:43:00,26.2,23.9,29.46,NW,319,15.0,25.0,91,0.00,,---,0.22,VWS V14.00,2013-01-30 22:43:00,
2013-01-30 16:48:00,25.7,23.2,29.46,NW,319,15.0,29.0,90,0.00,,---,0.22,VWS V14.00,2013-01-30 22:48:00,
2013-01-30 16:53:00,25.6,22.8,29.46,NW,319,24.0,29.0,89,0.00,,---,0.22,VWS V14.00,2013-01-30 22:53:00,
2013-01-30 16:58:00,25.5,22.7,29.48,NW,319,15.0,29.0,89,0.00,,---,0.22,VWS V14.00,2013-01-30 22:58:00,
2013-01-30 17:00:00,26.6,24.6,29.44,NW,319,18.0,33.0,92,0.00,,---,0.22,VWS V14.00,2013-01-30 23:00:00,
2013-01-30 17:03:00,25.6,22.8,29.48,NW,319,13.0,29.0,89,0.00,,---,0.22,VWS V14.00,2013-01-30 23:03:00,
2013-01-30 17:08:00,25.5,22.7,29.48,NW,319,12.0,29.0,89,0.00,,---,0.22,VWS V14.00,2013-01-30 23:08:00,
2013-01-30 17:13:00,25.0,22.2,29.49,NW,319,14.0,25.0,89,0.00,,---,0.22,VWS V14.00,2013-01-30 23:13:00,
2013-01-30 17:18:00,24.8,21.8,29.49,NW,319,16.0,30.0,88,0.00,,---,0.22,VWS V14.00,2013-01-30 23:18:00,
2013-01-30 17:23:00,24.7,21.7,29.49,NW,319,16.0,30.0,88,0.00,,---,0.22,VWS V14.00,2013-01-30 23:23:00,
2013-01-30 17:28:00,24.7,21.4,29.50,NW,319,25.0,31.0,87,0.00,,---,0.22,VWS V14.00,2013-01-30 23:28:00,
2013-01-30 17:30:00,26.2,23.9,29.46,NW,319,25.0,33.0,91,0.00,,---,0.22,VWS V14.00,2013-01-30 23:30:00,
2013-01-30 17:33:00,24.8,21.5,29.50,NW,319,15.0,31.0,87,0.00,,---,0.22,VWS V14.00,2013-01-30 23:33:00,
2013-01-30 17:38:00,24.8,21.8,29.50,NW,319,12.0,31.0,88,0.00,,---,0.22,VWS V14.00,2013-01-30 23:38:00,
2013-01-30 17:43:00,24.8,21.5,29.51,NW,319,19.0,21.0,87,0.00,,---,0.22,VWS V14.00,2013-01-30 23:43:00,
2013-01-30 17:48:00,24.7,21.4,29.51,NW,319,13.0,24.0,87,0.00,,---,0.22,VWS V14.00,2013-01-30 23:48:00,
2013-01-30 17:53:00,24.5,21.2,29.51,NW,319,26.0,27.0,87,0.00,,---,0.22,VWS V14.00,2013-01-30 23:53:00,
2013-01-30 17:58:00,24.2,20.6,29.53,NW,319,15.0,27.0,86,0.00,,---,0.22,VWS V14.00,2013-01-30 23:58:00,
2013-01-30 18:00:00,25.1,22.3,29.49,NW,319,19.0,29.0,89,0.00,,---,0.22,VWS V14.00,2013-01-31 00:00:00,
2013-01-30 18:03:00,24.2,20.4,29.53,NW,319,18.0,28.0,85,0.00,,---,0.22,VWS V14.00,2013-01-31 00:03:00,
2013-01-30 18:08:00,24.2,20.9,29.53,NW,319,20.0,28.0,87,0.00,,---,0.22,VWS V14.00,2013-01-31 00:08:00,
2013-01-30 18:13:00,24.0,20.7,29.54,NW,319,18.0,22.0,87,0.00,,---,0.22,VWS V14.00,2013-01-31 00:13:00,
2013-01-30 18:18:00,24.0,20.7,29.54,NW,319,22.0,23.0,87,0.00,,---,0.22,VWS V14.00,2013-01-31 00:18:00,
2013-01-30 18:23:00,23.8,20.2,29.54,NW,319,15.0,23.0,86,0.00,,---,0.22,VWS V14.00,2013-01-31 00:23:00,
2013-01-30 18:28:00,23.7,20.1,29.55,NW,319,15.0,24.0,86,0.00,,---,0.22,VWS V14.00,2013-01-31 00:28:00,
2013-01-30 18:30:00,24.8,21.8,29.51,NW,319,20.0,31.0,88,0.00,,---,0.22,VWS V14.00,2013-01-31 00:30:00,
2013-01-30 18:33:00,23.5,19.9,29.55,NW,319,12.0,26.0,86,0.00,,---,0.22,VWS V14.00,2013-01-31 00:33:00,
2013-01-30 18:38:00,23.3,19.7,29.55,NW,319,14.0,26.0,86,0.00,,---,0.22,VWS V14.00,2013-01-31 00:38:00,
2013-01-30 18:43:00,23.1,19.3,29.56,NW,319,10.0,16.0,85,0.00,,---,0.22,VWS V14.00,2013-01-31 00:43:00,
2013-01-30 18:48:00,23.1,19.5,29.56,NW,319,15.0,24.0,86,0.00,,---,0.22,VWS V14.00,2013-01-31 00:48:00,
2013-01-30 18:53:00,22.8,19.2,29.56,NW,319,22.0,24.0,86,0.00,,---,0.22,VWS V14.00,2013-01-31 00:53:00,
2013-01-30 18:58:00,22.5,19.2,29.57,NW,319,19.0,24.0,87,0.00,,---,0.22,VWS V14.00,2013-01-31 00:58:00,
2013-01-30 19:00:00,24.0,20.7,29.54,NW,319,22.0,28.0,87,0.00,,---,0.22,VWS V14.00,2013-01-31 01:00:00,
2013-01-30 19:03:00,22.4,19.1,29.57,NW,319,11.0,31.0,87,0.00,,---,0.22,VWS V14.00,2013-01-31 01:03:00,
2013-01-30 19:08:00,22.5,19.2,29.57,NW,319,15.0,31.0,87,0.00,,---,0.22,VWS V14.00,2013-01-31 01:08:00,
2013-01-30 19:13:00,22.3,19.0,29.57,NW,319,21.0,21.0,87,0.00,,---,0.22,VWS V14.00,2013-01-31 01:13:00,
2013-01-30 19:18:00,22.1,18.6,29.57,NW,319,20.0,25.0,86,0.00,,---,0.22,VWS V14.00,2013-01-31 01:18:00,
2013-01-30 19:23:00,21.9,18.4,29.57,NW,319,26.0,29.0,86,0.00,,---,0.22,VWS V14.00,2013-01-31 01:23:00,
2013-01-30 19:28:00,21.6,17.8,29.58,NW,319,15.0,31.0,85,0.00,,---,0.22,VWS V14.00,2013-01-31 01:28:00,
2013-01-30 19:30:00,23.1,19.3,29.56,NW,319,13.0,29.0,85,0.00,,---,0.22,VWS V14.00,2013-01-31 01:30:00,
2013-01-30 19:33:00,21.5,17.7,29.58,NW,319,21.0,31.0,85,0.00,,---,0.22,VWS V14.00,2013-01-31 01:33:00,
2013-01-30 19:38:00,21.2,17.4,29.58,NW,319,14.0,31.0,85,0.00,,---,0.22,VWS V14.00,2013-01-31 01:38:00,
2013-01-30 19:43:00,20.9,17.1,29.59,NW,319,23.0,27.0,85,0.00,,---,0.22,VWS V14.00,2013-01-31 01:43:00,
2013-01-30 19:48:00,20.4,16.6,29.59,NW,319,21.0,30.0,85,0.00,,---,0.22,VWS V14.00,2013-01-31 01:48:00,
2013-01-30 19:53:00,20.2,16.4,29.59,NW,319,14.0,30.0,85,0.00,,---,0.22,VWS V14.00,2013-01-31 01:53:00,
2013-01-30 19:58:00,20.0,15.9,29.60,NW,319,23.0,31.0,84,0.00,,---,0.22,VWS V14.00,2013-01-31 01:58:00,
2013-01-30 20:00:00,22.3,19.0,29.57,NW,319,14.0,31.0,87,0.00,,---,0.22,VWS V14.00,2013-01-31 02:00:00,
2013-01-30 20:03:00,20.1,16.3,29.60,NW,319,15.0,31.0,85,0.00,,---,0.22,VWS V14.00,2013-01-31 02:03:00,
2013-01-30 20:08:00,19.9,16.1,29.60,NW,319,12.0,31.0,85,0.00,,---,0.22,VWS V14.00,2013-01-31 02:08:00,
2013-01-30 20:13:00,19.9,15.9,29.61,NW,319,18.0,22.0,84,0.00,,---,0.22,VWS V14.00,2013-01-31 02:13:00,
2013-01-30 20:18:00,20.0,16.2,29.61,NW,319,25.0,26.0,85,0.00,,---,0.22,VWS V14.00,2013-01-31 02:18:00,
2013-01-30 20:23:00,20.0,15.9,29.61,NW,319,16.0,31.0,84,0.00,,---,0.22,VWS V14.00,2013-01-31 02:23:00,
2013-01-30 20:28:00,20.0,15.9,29.61,NW,319,19.0,31.0,84,0.00,,---,0.22,VWS V14.00,2013-01-31 02:28:00,
2013-01-30 20:30:00,21.0,17.2,29.59,NW,319,19.0,31.0,85,0.00,,---,0.22,VWS V14.00,2013-01-31 02:30:00,
2013-01-30 20:33:00,20.0,15.9,29.61,NW,319,21.0,31.0,84,0.00,,---,0.22,VWS V14.00,2013-01-31 02:33:00,
2013-01-30 20:38:00,20.1,16.0,29.61,NW,319,19.0,31.0,84,0.00,,---,0.22,VWS V14.00,2013-01-31 02:38:00,
2013-01-30 20:43:00,20.2,15.9,29.62,NW,319,14.0,19.0,83,0.00,,---,0.22,VWS V14.00,2013-01-31 02:43:00,
2013-01-30 20:48:00,20.3,16.0,29.62,NW,319,20.0,27.0,83,0.00,,---,0.22,VWS V14.00,2013-01-31 02:48:00,
2013-01-30 20:53:00,20.4,16.4,29.62,NW,319,18.0,27.0,84,0.00,,---,0.22,VWS V14.00,2013-01-31 02:53:00,
2013-01-30 20:58:00,20.4,16.4,29.63,NW,319,21.0,27.0,84,0.00,,---,0.22,VWS V14.00,2013-01-31 02:58:00,
2013-01-30 21:00:00,19.9,15.9,29.61,NW,319,14.0,31.0,84,0.00,,---,0.22,VWS V14.00,2013-01-31 03:00:00,
2013-01-30 21:03:00,20.5,16.4,29.63,NW,319,23.0,27.0,84,0.00,,---,0.22,VWS V14.00,2013-01-31 03:03:00,
2013-01-30 21:08:00,20.5,16.4,29.63,NW,319,19.0,27.0,84,0.00,,---,0.22,VWS V14.00,2013-01-31 03:08:00,
2013-01-30 21:13:00,20.4,16.1,29.64,NW,319,15.0,22.0,83,0.00,,---,0.22,VWS V14.00,2013-01-31 03:13:00,
2013-01-30 21:18:00,20.4,16.1,29.64,NW,319,15.0,28.0,83,0.00,,---,0.22,VWS V14.00,2013-01-31 03:18:00,
2013-01-30 21:23:00,20.2,15.9,29.64,NW,319,25.0,29.0,83,0.00,,---,0.22,VWS V14.00,2013-01-31 03:23:00,
2013-01-30 21:28:00,20.1,15.8,29.64,NW,319,18.0,29.0,83,0.00,,---,0.22,VWS V14.00,2013-01-31 03:28:00,
2013-01-30 21:30:00,20.2,15.9,29.62,NW,319,15.0,31.0,83,0.00,,---,0.22,VWS V14.00,2013-01-31 03:30:00,
2013-01-30 21:33:00,20.0,15.9,29.64,NW,319,16.0,29.0,84,0.00,,---,0.22,VWS V14.00,2013-01-31 03:33:00,
2013-01-30 21:38:00,20.0,16.2,29.64,NW,319,22.0,29.0,85,0.00,,---,0.22,VWS V14.00,2013-01-31 03:38:00,
2013-01-30 21:43:00,19.9,16.1,29.65,NW,319,22.0,25.0,85,0.00,,---,0.22,VWS V14.00,2013-01-31 03:43:00,
2013-01-30 21:48:00,19.8,15.8,29.65,NW,319,23.0,29.0,84,0.00,,---,0.22,VWS V14.00,2013-01-31 03:48:00,
2013-01-30 21:53:00,19.8,15.8,29.65,NW,319,21.0,32.0,84,0.00,,---,0.22,VWS V14.00,2013-01-31 03:53:00,
2013-01-30 21:58:00,19.9,15.9,29.65,NW,319,21.0,32.0,84,0.00,,---,0.22,VWS V14.00,2013-01-31 03:58:00,
2013-01-30 22:00:00,20.4,16.1,29.64,NW,319,20.0,29.0,83,0.00,,---,0.22,VWS V14.00,2013-01-31 04:00:00,
2013-01-30 22:03:00,19.9,15.9,29.65,NW,319,15.0,32.0,84,0.00,,---,0.22,VWS V14.00,2013-01-31 04:03:00,
2013-01-30 22:08:00,19.8,15.8,29.65,NW,319,16.0,32.0,84,0.00,,---,0.22,VWS V14.00,2013-01-31 04:08:00,
2013-01-30 22:13:00,19.7,15.7,29.66,NW,319,23.0,25.0,84,0.00,,---,0.22,VWS V14.00,2013-01-31 04:13:00,
2013-01-30 22:18:00,19.6,15.3,29.66,NW,319,21.0,29.0,83,0.00,,---,0.22,VWS V14.00,2013-01-31 04:18:00,
2013-01-30 22:23:00,19.6,15.0,29.66,NW,319,11.0,29.0,82,0.00,,---,0.22,VWS V14.00,2013-01-31 04:23:00,
2013-01-30 22:28:00,19.5,15.2,29.66,NW,319,20.0,29.0,83,0.00,,---,0.22,VWS V14.00,2013-01-31 04:28:00,
2013-01-30 22:30:00,20.0,16.2,29.65,NW,319,19.0,29.0,85,0.00,,---,0.22,VWS V14.00,2013-01-31 04:30:00,
2013-01-30 22:33:00,19.2,14.9,29.66,NW,319,16.0,29.0,83,0.00,,---,0.22,VWS V14.00,2013-01-31 04:33:00,
2013-01-30 22:38:00,19.1,14.8,29.66,NW,319,10.0,29.0,83,0.00,,---,0.22,VWS V14.00,2013-01-31 04:38:00,
2013-01-30 22:43:00,19.0,14.7,29.68,NW,319,21.0,22.0,83,0.00,,---,0.22,VWS V14.00,2013-01-31 04:43:00,
2013-01-30 22:48:00,18.6,14.0,29.68,NW,319,27.0,29.0,82,0.00,,---,0.22,VWS V14.00,2013-01-31 04:48:00,
2013-01-30 22:53:00,18.5,13.9,29.68,NW,319,15.0,29.0,82,0.00,,---,0.22,VWS V14.00,2013-01-31 04:53:00,
2013-01-30 22:58:00,18.4,13.8,29.69,NW,319,18.0,30.0,82,0.00,,---,0.22,VWS V14.00,2013-01-31 04:58:00,
2013-01-30 23:00:00,18.2,13.6,29.69,NW,319,16.0,30.0,82,0.00,,---,0.22,VWS V14.00,2013-01-31 05:00:00,
2013-01-30 23:01:00,18.2,13.6,29.69,NW,319,13.0,30.0,82,0.00,,---,0.22,VWS V14.00,2013-01-31 05:01:00,
2013-01-30 23:03:00,18.2,13.6,29.69,NW,319,18.0,30.0,82,0.00,,---,0.22,VWS V14.00,2013-01-31 05:03:00,
2013-01-30 23:08:00,18.1,13.5,29.69,NW,319,15.0,30.0,82,0.00,,---,0.22,VWS V14.00,2013-01-31 05:08:00,
2013-01-30 23:13:00,17.8,13.0,29.69,NW,319,23.0,26.0,81,0.00,,---,0.00,VWS V14.00,2013-01-31 05:13:00,
2013-01-30 23:18:00,17.8,13.0,29.69,NW,319,18.0,26.0,81,0.00,,---,0.00,VWS V14.00,2013-01-31 05:18:00,
2013-01-30 23:23:00,17.7,12.9,29.69,NW,319,12.0,26.0,81,0.00,,---,0.00,VWS V14.00,2013-01-31 05:23:00,
2013-01-30 23:28:00,17.7,12.9,29.71,NW,319,23.0,26.0,81,0.00,,---,0.00,VWS V14.00,2013-01-31 05:28:00,
2013-01-30 23:30:00,19.0,14.7,29.68,NW,319,22.0,29.0,83,0.00,,---,0.22,VWS V14.00,2013-01-31 05:30:00,
2013-01-30 23:33:00,17.7,12.9,29.71,NW,319,23.0,26.0,81,0.00,,---,0.00,VWS V14.00,2013-01-31 05:33:00,
2013-01-30 23:38:00,17.7,12.9,29.71,NW,319,13.0,26.0,81,0.00,,---,0.00,VWS V14.00,2013-01-31 05:38:00,
2013-01-30 23:43:00,17.7,12.9,29.71,NW,319,19.0,20.0,81,0.00,,---,0.00,VWS V14.00,2013-01-31 05:43:00,
2013-01-30 23:48:00,17.7,12.9,29.71,NW,319,20.0,25.0,81,0.00,,---,0.00,VWS V14.00,2013-01-31 05:48:00,
2013-01-30 23:53:00,17.6,12.8,29.71,NW,319,16.0,25.0,81,0.00,,---,0.00,VWS V14.00,2013-01-31 05:53:00,
2013-01-30 23:58:00,17.6,13.1,29.71,NW,319,15.0,25.0,82,0.00,,---,0.00,VWS V14.00,2013-01-31 05:58:00,